Time;durP1;ratioP1;P1;durP2;ratioP2;P2;SDS_P1;SDS_P2;PMS_P1;PMS_P2;Temp;Humidity;BMP_temperature;BMP_pressure;BME280_temperature;BME280_humidity;BME280_pressure;Samples;Min_cycle;Max_cycle;Signal;HPM_P1;HPM_P2
2021/05/12 00:01:35;;;;;;;12.25;0.30;;;;;;;8.43;68.68;100849.76;1684520;82;22047;-40
2021/05/12 00:04:03;;;;;;;6.33;0.15;;;;;;;8.49;69.45;100839.44;1689684;83;20882;-41
2021/05/12 00:06:29;;;;;;;4.53;0.30;;;;;;;8.47;70.04;100834.72;1698429;83;21610;-41
2021/05/12 00:08:55;;;;;;;0.25;0.17;;;;;;;8.43;70.83;100831.28;1698562;83;20970;-41
2021/05/12 00:11:22;;;;;;;0.93;0.20;;;;;;;8.40;70.91;100836.45;1698527;83;21013;-40
2021/05/12 00:13:48;;;;;;;2.17;0.20;;;;;;;8.39;71.09;100835.16;1698558;83;20926;-39
2021/05/12 00:16:14;;;;;;;0.20;0.20;;;;;;;8.38;71.32;100836.02;1698566;83;20957;-42
2021/05/12 00:18:43;;;;;;;0.20;0.20;;;;;;;8.37;71.45;100834.30;1698389;83;20981;-41
2021/05/12 00:21:12;;;;;;;0.23;0.10;;;;;;;8.36;71.58;100836.05;1726660;82;21012;-41
2021/05/12 00:23:50;;;;;;;0.20;0.20;;;;;;;8.30;71.71;100830.47;1699511;83;20894;-41
2021/05/12 00:26:15;;;;;;;2.10;0.37;;;;;;;8.31;71.52;100827.44;1699357;83;21173;-41
2021/05/12 00:28:41;;;;;;;0.10;0.10;;;;;;;8.31;71.46;100823.57;1697600;83;21013;-40
2021/05/12 00:31:07;;;;;;;0.47;0.25;;;;;;;8.31;71.38;100823.57;1698525;83;20997;-40
2021/05/12 00:33:33;;;;;;;0.55;0.10;;;;;;;8.31;71.22;100829.60;1726790;83;21427;-40
2021/05/12 00:36:00;;;;;;;1.05;0.20;;;;;;;8.30;71.30;100829.59;1726732;81;20957;-42
2021/05/12 00:38:26;;;;;;;0.05;0.05;;;;;;;8.29;71.66;100835.61;1698635;83;22634;-41
2021/05/12 00:40:54;;;;;;;0.03;0.03;;;;;;;8.25;72.33;100833.50;1698402;83;21455;-40
2021/05/12 00:43:20;;;;;;;1.02;0.17;;;;;;;8.22;72.71;100845.53;1699667;83;20989;-41
2021/05/12 00:45:47;;;;;;;0.15;0.15;;;;;;;8.15;72.99;100844.67;1698467;83;21514;-41
2021/05/12 00:48:13;;;;;;;0.10;0.10;;;;;;;8.12;73.30;100845.56;1698558;83;21013;-41
2021/05/12 00:50:39;;;;;;;0.10;0.10;;;;;;;8.09;73.93;100843.41;1698411;83;21189;-40
2021/05/12 00:53:05;;;;;;;0.23;0.20;;;;;;;8.07;74.40;100834.81;1726842;81;21490;-41
2021/05/12 00:55:32;;;;;;;0.70;0.28;;;;;;;8.01;75.28;100841.71;1726826;83;21011;-41
2021/05/12 00:57:58;;;;;;;0.17;0.17;;;;;;;7.95;76.18;100841.70;1726804;81;21049;-40
2021/05/12 01:00:25;;;;;;;0.10;0.10;;;;;;;7.89;76.69;100845.58;1726938;83;20914;-40
2021/05/12 01:02:52;;;;;;;0.33;0.20;;;;;;;7.83;77.50;100843.89;1726853;81;21773;-41
2021/05/12 01:05:39;;;;;;;0.55;0.20;;;;;;;7.72;78.13;100841.31;1711542;83;21014;-40
2021/05/12 01:08:05;;;;;;;1.17;0.10;;;;;;;7.64;78.75;100834.00;1685608;84;20903;-40
2021/05/12 01:10:33;;;;;;;3.67;0.30;;;;;;;7.57;79.44;100836.16;1684298;84;21062;-40
2021/05/12 01:13:00;;;;;;;0.10;0.10;;;;;;;7.51;80.04;100834.88;1705921;83;21049;-40
2021/05/12 01:15:26;;;;;;;0.10;0.10;;;;;;;7.47;80.59;100836.16;1685588;84;21832;-40
2021/05/12 01:17:55;;;;;;;3.22;0.20;;;;;;;7.47;80.82;100832.71;1684292;84;20964;-40
2021/05/12 01:20:21;;;;;;;2.40;0.30;;;;;;;7.47;81.11;100833.59;1683211;84;21006;-40
2021/05/12 01:22:47;;;;;;;0.80;0.30;;;;;;;7.46;81.38;100830.99;1684475;84;21077;-40
2021/05/12 01:25:13;;;;;;;0.65;0.20;;;;;;;7.45;81.65;100834.02;1684281;84;21037;-40
2021/05/12 01:27:40;;;;;;;1.85;0.20;;;;;;;7.46;81.71;100835.73;1684368;84;22712;-41
2021/05/12 01:30:08;;;;;;;1.05;0.20;;;;;;;7.46;82.02;100828.42;1684362;84;21029;-40
2021/05/12 01:32:35;;;;;;;0.25;0.20;;;;;;;7.47;82.19;100832.30;1684447;84;20994;-40
2021/05/12 01:35:08;;;;;;;1.25;0.30;;;;;;;7.48;82.26;100830.56;1684493;84;20975;-40
2021/05/12 01:37:35;;;;;;;0.20;0.20;;;;;;;7.51;82.31;100831.00;1705918;83;20911;-40
2021/05/12 01:40:06;;;;;;;0.53;0.30;;;;;;;7.52;82.32;100824.55;1705955;84;20932;-40
2021/05/12 01:42:33;;;;;;;3.10;0.30;;;;;;;7.56;82.44;100817.69;1662597;84;20994;-40
2021/05/12 01:45:06;;;;;;;1.12;0.45;;;;;;;7.59;82.51;100818.97;1684391;84;20987;-41
2021/05/12 01:47:32;;;;;;;0.30;0.30;;;;;;;7.61;82.53;100823.70;1705275;84;21014;-41
2021/05/12 01:50:01;;;;;;;3.20;0.20;;;;;;;7.64;82.43;100815.95;1684641;84;21006;-40
2021/05/12 01:52:27;;;;;;;1.52;0.42;;;;;;;7.67;82.34;100812.53;1705865;82;21159;-40
2021/05/12 01:54:54;;;;;;;0.85;0.40;;;;;;;7.70;82.27;100821.55;1684547;84;21535;-41
2021/05/12 01:57:20;;;;;;;0.53;0.33;;;;;;;7.71;82.25;100815.53;1684462;84;20994;-41
2021/05/12 01:59:46;;;;;;;0.50;0.37;;;;;;;7.75;82.04;100815.95;1705836;83;20930;-41
2021/05/12 02:02:12;;;;;;;0.45;0.20;;;;;;;7.82;81.79;100809.08;1684579;84;20994;-40
2021/05/12 02:04:39;;;;;;;0.33;0.33;;;;;;;7.82;81.81;100818.10;1684313;84;21074;-40
2021/05/12 02:07:07;;;;;;;1.20;0.40;;;;;;;7.83;81.70;100817.24;1685516;84;21828;-40
2021/05/12 02:09:38;;;;;;;2.30;0.68;;;;;;;7.81;81.67;100821.09;1705854;83;21440;-41
2021/05/12 02:12:06;;;;;;;0.65;0.40;;;;;;;7.83;81.52;100830.13;1662840;84;21572;-41
2021/05/12 02:14:33;;;;;;;2.00;0.45;;;;;;;7.83;81.51;100829.71;1684725;84;21560;-40
2021/05/12 02:17:00;;;;;;;0.35;0.30;;;;;;;7.86;81.43;100828.83;1663384;84;20938;-40
2021/05/12 02:19:26;;;;;;;0.70;0.40;;;;;;;7.84;81.38;100827.56;1705901;84;20884;-41
2021/05/12 02:21:52;;;;;;;1.10;0.55;;;;;;;7.86;81.16;100819.81;1684752;84;20911;-41
2021/05/12 02:24:18;;;;;;;0.42;0.42;;;;;;;7.86;80.88;100823.26;1684634;84;20994;-41
2021/05/12 02:26:44;;;;;;;0.50;0.50;;;;;;;7.88;80.65;100818.09;1706092;83;20907;-41
2021/05/12 02:29:11;;;;;;;2.65;0.90;;;;;;;7.89;80.45;100827.12;1705916;84;21742;-41
2021/05/12 02:31:37;;;;;;;7.55;0.93;;;;;;;7.89;80.38;100827.53;1685075;82;21074;-40
2021/05/12 02:34:04;;;;;;;1.27;0.85;;;;;;;7.90;80.02;100818.94;1706043;84;21049;-40
2021/05/12 02:36:30;;;;;;;1.45;0.68;;;;;;;7.92;79.93;100815.92;1705948;84;21014;-40
2021/05/12 02:38:56;;;;;;;2.30;0.80;;;;;;;7.96;79.69;100823.23;1706000;83;21540;-41
2021/05/12 02:41:23;;;;;;;2.12;0.68;;;;;;;7.95;79.62;100824.09;1684740;84;20991;-41
2021/05/12 02:43:49;;;;;;;1.45;0.50;;;;;;;7.96;79.52;100825.81;1684583;84;21042;-41
2021/05/12 02:46:15;;;;;;;0.80;0.60;;;;;;;7.96;79.44;100826.69;1685712;84;21748;-41
2021/05/12 02:48:41;;;;;;;3.40;0.70;;;;;;;7.97;79.35;100820.67;1684577;84;20978;-41
2021/05/12 02:51:08;;;;;;;1.30;0.65;;;;;;;7.99;79.26;100824.09;1684543;84;20992;-40
2021/05/12 02:53:34;;;;;;;1.90;0.80;;;;;;;8.00;79.18;100827.11;1705884;83;21104;-40
2021/05/12 02:56:00;;;;;;;0.88;0.50;;;;;;;8.02;79.06;100824.50;1684472;84;21559;-40
2021/05/12 02:58:26;;;;;;;1.42;0.60;;;;;;;8.04;78.85;100826.64;1684291;84;20978;-40
2021/05/12 03:00:53;;;;;;;1.20;1.00;;;;;;;8.05;78.55;100824.08;1684446;84;21571;-40
2021/05/12 03:03:19;;;;;;;3.90;1.75;;;;;;;8.09;78.06;100829.23;1684587;84;20934;-39
2021/05/12 03:05:45;;;;;;;1.55;1.45;;;;;;;8.09;78.00;100824.95;1694458;81;21151;-40
2021/05/12 03:08:11;;;;;;;0.88;0.75;;;;;;;8.11;78.10;100828.79;1698568;83;21115;-40
2021/05/12 03:10:37;;;;;;;3.67;1.47;;;;;;;8.14;78.01;100827.08;1726971;83;20918;-40
2021/05/12 03:13:05;;;;;;;3.08;1.35;;;;;;;8.16;77.92;100833.50;1726949;83;21002;-40
2021/05/12 03:15:31;;;;;;;1.60;1.07;;;;;;;8.19;77.42;100824.46;1698731;83;20957;-41
2021/05/12 03:17:57;;;;;;;1.15;1.15;;;;;;;8.21;77.41;100821.48;1726870;81;21014;-41
2021/05/12 03:20:25;;;;;;;4.67;1.27;;;;;;;8.22;77.50;100824.90;1698312;83;20926;-41
2021/05/12 03:22:52;;;;;;;1.45;1.12;;;;;;;8.23;77.36;100822.33;1699878;83;20961;-41
2021/05/12 03:25:18;;;;;;;7.83;1.70;;;;;;;8.24;77.32;100824.45;1726888;83;20902;-41
2021/05/12 03:27:45;;;;;;;3.33;1.32;;;;;;;8.27;77.23;100827.90;1726964;83;21641;-41
2021/05/12 03:30:18;;;;;;;3.15;1.35;;;;;;;8.26;77.32;100830.05;1726907;83;21148;-40
2021/05/12 03:32:44;;;;;;;1.40;1.27;;;;;;;8.28;77.44;100836.48;1698504;83;20953;-41
2021/05/12 03:35:12;;;;;;;3.85;1.30;;;;;;;8.28;77.45;100834.77;1698480;83;21009;-41
2021/05/12 03:37:38;;;;;;;1.32;1.20;;;;;;;8.32;77.20;100836.48;1699841;83;21021;-41
2021/05/12 03:40:07;;;;;;;1.57;1.17;;;;;;;8.35;77.28;100834.33;1698453;83;20910;-41
2021/05/12 03:42:33;;;;;;;1.62;1.52;;;;;;;8.37;77.38;100833.89;1726842;83;21318;-40
2021/05/12 03:45:00;;;;;;;2.55;1.37;;;;;;;8.39;77.06;100839.03;1699757;83;21443;-41
2021/05/12 03:47:27;;;;;;;1.55;1.02;;;;;;;8.38;76.97;100845.05;1699741;83;20934;-40
2021/05/12 03:49:53;;;;;;;1.57;1.27;;;;;;;8.40;76.91;100838.16;1698519;83;21578;-40
2021/05/12 03:52:19;;;;;;;2.70;1.40;;;;;;;8.41;76.78;100842.45;1698552;83;21048;-40
2021/05/12 03:54:49;;;;;;;2.15;1.30;;;;;;;8.42;76.54;100837.31;1698546;83;22963;-41
2021/05/12 03:57:13;;;;;;;2.75;1.50;;;;;;;8.40;76.43;100839.03;1699511;83;21001;-41
2021/05/12 03:59:40;;;;;;;1.20;1.05;;;;;;;8.44;76.30;100841.16;1698386;83;21483;-40
2021/05/12 04:02:06;;;;;;;3.12;1.20;;;;;;;8.42;76.33;100841.17;1698360;83;21419;-40
2021/05/12 04:04:32;;;;;;;2.22;0.88;;;;;;;8.43;76.27;100837.73;1697047;83;20962;-40
2021/05/12 04:06:58;;;;;;;0.78;0.78;;;;;;;8.43;76.13;100844.19;1706040;82;21212;-40
2021/05/12 04:09:25;;;;;;;0.70;0.70;;;;;;;8.44;75.84;100839.45;1705786;83;20983;-40
2021/05/12 04:11:51;;;;;;;0.80;0.80;;;;;;;8.46;75.69;100835.55;1684331;84;20923;-40
2021/05/12 04:14:17;;;;;;;1.50;0.90;;;;;;;8.45;75.56;100838.58;1705945;83;20994;-40
2021/05/12 04:16:44;;;;;;;0.50;0.50;;;;;;;8.48;75.49;100842.89;1705952;84;21400;-40
2021/05/12 04:19:10;;;;;;;0.60;0.60;;;;;;;8.52;75.09;100827.84;1684631;84;21038;-40
2021/05/12 04:21:36;;;;;;;0.78;0.78;;;;;;;8.50;75.05;100839.03;1705792;83;20899;-40
2021/05/12 04:24:03;;;;;;;0.80;0.80;;;;;;;8.50;75.15;100834.73;1705894;84;20999;-40
2021/05/12 04:26:30;;;;;;;1.00;1.00;;;;;;;8.50;75.13;100825.70;1705896;84;21037;-40
2021/05/12 04:28:56;;;;;;;1.20;0.90;;;;;;;8.50;74.96;100841.19;1684617;84;21429;-40
2021/05/12 04:31:22;;;;;;;2.37;2.17;;;;;;;8.51;74.90;100836.45;1684704;84;21108;-40
2021/05/12 04:33:49;;;;;;;3.02;1.90;;;;;;;8.52;74.73;100842.04;1705789;83;21002;-40
2021/05/12 04:36:15;;;;;;;1.17;1.15;;;;;;;8.50;74.95;100846.34;1705990;83;20990;-40
2021/05/12 04:38:41;;;;;;;2.05;1.10;;;;;;;8.52;75.16;100845.03;1684306;84;21897;-40
2021/05/12 04:41:08;;;;;;;2.17;0.95;;;;;;;8.55;74.91;100844.60;1705838;83;20934;-40
2021/05/12 04:43:34;;;;;;;1.95;0.82;;;;;;;8.57;74.94;100839.42;1684411;84;20986;-41
2021/05/12 04:46:02;;;;;;;0.95;0.80;;;;;;;8.62;75.05;100842.42;1684584;84;20979;-40
2021/05/12 04:48:30;;;;;;;0.72;0.70;;;;;;;8.70;74.95;100833.36;1705730;84;21599;-40
2021/05/12 04:50:56;;;;;;;0.80;0.80;;;;;;;8.81;74.92;100832.02;1684329;84;20995;-40
2021/05/12 04:53:23;;;;;;;0.82;0.70;;;;;;;9.01;74.56;100833.64;1684479;84;20955;-41
2021/05/12 04:55:49;;;;;;;0.85;0.60;;;;;;;9.18;73.86;100828.36;1684368;84;21049;-40
2021/05/12 04:58:15;;;;;;;1.10;1.00;;;;;;;9.30;73.48;100830.00;1705646;84;20938;-41
2021/05/12 05:00:42;;;;;;;0.70;0.70;;;;;;;9.37;73.56;100829.08;1684556;84;21002;-40
2021/05/12 05:03:08;;;;;;;2.22;0.80;;;;;;;9.50;72.46;100820.80;1705916;82;21010;-40
2021/05/12 05:05:34;;;;;;;0.70;0.70;;;;;;;9.69;72.64;100830.53;1705681;82;20935;-41
2021/05/12 05:08:01;;;;;;;0.90;0.90;;;;;;;9.85;72.16;100833.87;1684167;84;21022;-41
2021/05/12 05:10:27;;;;;;;2.40;1.00;;;;;;;10.02;71.84;100825.07;1684168;84;20895;-41
2021/05/12 05:12:53;;;;;;;3.30;1.10;;;;;;;10.12;70.54;100831.88;1684294;84;21599;-41
2021/05/12 05:15:19;;;;;;;2.30;1.82;;;;;;;10.08;69.76;100837.09;1684968;84;20955;-39
2021/05/12 05:17:47;;;;;;;1.37;1.30;;;;;;;10.07;70.26;100833.63;1684279;84;20987;-40
2021/05/12 05:20:15;;;;;;;3.60;1.32;;;;;;;10.06;70.00;100840.55;1639806;84;21010;-40
2021/05/12 05:22:41;;;;;;;2.35;1.20;;;;;;;10.12;69.74;100843.52;1685629;84;20978;-40
2021/05/12 05:25:09;;;;;;;1.20;1.20;;;;;;;10.17;69.75;100839.56;1684382;84;20974;-40
2021/05/12 05:27:36;;;;;;;1.10;1.10;;;;;;;10.20;69.80;100840.83;1684604;84;20947;-40
2021/05/12 05:30:04;;;;;;;1.57;1.47;;;;;;;10.31;70.09;100838.13;1706079;82;21539;-41
2021/05/12 05:32:48;;;;;;;3.40;1.80;;;;;;;10.35;69.42;100841.96;1684668;84;21808;-40
2021/05/12 05:35:33;;;;;;;3.25;1.20;;;;;;;10.40;69.50;100838.45;1684362;84;20990;-40
2021/05/12 05:38:19;;;;;;;2.20;1.47;;;;;;;10.38;68.53;100833.74;1684534;84;21584;-40
2021/05/12 05:41:03;;;;;;;1.70;1.60;;;;;;;10.34;68.36;100841.55;1684623;84;20959;-40
2021/05/12 05:43:48;;;;;;;3.52;1.75;;;;;;;10.34;67.67;100836.38;1706077;83;20927;-40
2021/05/12 05:46:33;;;;;;;2.30;1.62;;;;;;;10.41;67.19;100841.50;1684651;84;21174;-39
2021/05/12 05:49:17;;;;;;;1.82;1.40;;;;;;;10.42;66.71;100837.61;1705878;83;20963;-40
2021/05/12 05:52:03;;;;;;;1.42;1.37;;;;;;;10.35;67.20;100838.08;1684492;84;20994;-40
2021/05/12 05:54:48;;;;;;;1.60;1.60;;;;;;;10.19;67.59;100847.75;1684709;84;21006;-40
2021/05/12 05:57:34;;;;;;;2.55;1.55;;;;;;;10.04;68.76;100844.89;1705996;83;21022;-39
2021/05/12 06:00:20;;;;;;;1.20;1.20;;;;;;;9.95;69.83;100845.41;1706202;83;21717;-40
2021/05/12 06:02:47;;;;;;;1.70;1.60;;;;;;;9.91;70.28;100851.03;1684502;84;20939;-42
2021/05/12 06:05:32;;;;;;;1.50;1.40;;;;;;;9.94;70.17;100844.98;1707777;82;20962;-40
2021/05/12 06:08:16;;;;;;;1.70;1.60;;;;;;;10.02;69.94;100847.92;1685481;83;21497;-41
2021/05/12 06:11:01;;;;;;;1.50;1.40;;;;;;;10.26;69.53;100838.20;1685657;83;20989;-41
2021/05/12 06:13:47;;;;;;;2.05;1.40;;;;;;;10.69;68.05;100838.15;1685288;83;21723;-41
2021/05/12 06:16:32;;;;;;;2.25;1.90;;;;;;;11.04;66.45;100834.67;1685515;83;22087;-41
2021/05/12 06:19:17;;;;;;;1.82;1.50;;;;;;;11.29;64.93;100823.94;1713820;83;21491;-40
2021/05/12 06:22:02;;;;;;;1.70;1.60;;;;;;;11.30;64.97;100809.64;1713839;83;20970;-40
2021/05/12 06:24:47;;;;;;;2.15;1.35;;;;;;;11.21;65.69;100833.96;1685320;83;20970;-40
2021/05/12 06:27:31;;;;;;;2.30;1.55;;;;;;;11.18;66.14;100834.47;1685303;83;21057;-40
2021/05/12 06:30:16;;;;;;;2.20;2.00;;;;;;;11.06;68.34;100828.56;1685504;83;21005;-39
2021/05/12 06:33:01;;;;;;;2.58;1.70;;;;;;;10.97;70.59;100823.53;1685358;83;21005;-40
2021/05/12 06:35:46;;;;;;;2.02;1.80;;;;;;;10.96;72.18;100812.75;1685325;83;21555;-41
2021/05/12 06:38:31;;;;;;;2.50;2.33;;;;;;;11.05;70.63;100809.17;1713844;83;20962;-40
2021/05/12 06:40:57;;;;;;;2.37;2.20;;;;;;;11.07;68.10;100805.67;1685399;83;21005;-41
2021/05/12 06:43:24;;;;;;;1.92;1.82;;;;;;;11.04;68.48;100803.13;1685411;83;20962;-42
2021/05/12 06:45:51;;;;;;;3.47;1.80;;;;;;;11.04;67.83;100803.58;1685165;83;20930;-40
2021/05/12 06:48:17;;;;;;;1.90;1.80;;;;;;;11.06;68.06;100808.30;1713636;83;20946;-40
2021/05/12 06:50:44;;;;;;;2.27;2.17;;;;;;;11.03;67.31;100812.23;1713755;83;20919;-41
2021/05/12 06:53:11;;;;;;;2.52;2.15;;;;;;;11.04;67.64;100803.58;1685568;82;20997;-40
2021/05/12 06:55:37;;;;;;;3.72;1.82;;;;;;;11.07;66.60;100810.84;1685263;83;21005;-40
2021/05/12 06:58:06;;;;;;;2.10;2.00;;;;;;;11.09;66.42;100809.55;1685413;83;20994;-40
2021/05/12 07:00:32;;;;;;;2.47;2.27;;;;;;;11.18;65.91;100805.50;1685396;83;21133;-41
2021/05/12 07:02:58;;;;;;;2.75;2.10;;;;;;;11.32;66.22;100793.63;1685447;83;21022;-40
2021/05/12 07:05:24;;;;;;;2.10;1.95;;;;;;;11.61;65.61;100797.92;1684573;83;22704;-41
2021/05/12 07:07:51;;;;;;;2.00;1.90;;;;;;;11.84;62.71;100799.26;1684409;84;21026;-40
2021/05/12 07:10:18;;;;;;;2.35;1.75;;;;;;;11.84;61.78;100789.72;1684333;84;20993;-40
2021/05/12 07:12:44;;;;;;;2.40;2.27;;;;;;;11.75;62.63;100792.06;1684568;84;21685;-41
2021/05/12 07:15:12;;;;;;;4.30;2.10;;;;;;;11.79;62.97;100798.91;1705933;82;20986;-41
2021/05/12 07:17:42;;;;;;;2.47;2.37;;;;;;;11.87;62.04;100804.38;1684530;84;22689;-41
2021/05/12 07:20:10;;;;;;;3.12;2.52;;;;;;;11.90;61.11;100796.54;1684221;84;20986;-40
2021/05/12 07:22:37;;;;;;;3.33;2.20;;;;;;;11.82;60.64;100803.62;1685708;84;20935;-41
2021/05/12 07:25:05;;;;;;;2.65;2.47;;;;;;;11.66;61.58;100809.52;1684477;84;21011;-41
2021/05/12 07:27:31;;;;;;;3.00;2.10;;;;;;;11.60;62.37;100813.06;1684273;84;21010;-41
2021/05/12 07:29:57;;;;;;;4.75;2.83;;;;;;;11.57;61.63;100805.34;1684429;84;22676;-41
2021/05/12 07:32:24;;;;;;;7.25;3.33;;;;;;;11.43;61.79;100810.30;1684258;84;21014;-41
2021/05/12 07:34:55;;;;;;;4.37;3.90;;;;;;;11.36;62.46;100811.29;1684646;84;21029;-41
2021/05/12 07:37:19;;;;;;;4.87;2.50;;;;;;;11.35;62.07;100816.90;1684910;84;20978;-41
2021/05/12 07:39:45;;;;;;;2.55;2.37;;;;;;;11.41;62.73;100808.63;1684609;84;20934;-41
2021/05/12 07:42:13;;;;;;;2.65;2.55;;;;;;;11.53;62.74;100812.77;1684361;84;21716;-41
2021/05/12 07:44:40;;;;;;;3.17;2.58;;;;;;;11.64;62.63;100800.03;1684178;84;21133;-41
2021/05/12 07:47:06;;;;;;;2.27;2.12;;;;;;;11.87;63.27;100806.98;1684298;84;21042;-41
2021/05/12 07:49:32;;;;;;;2.17;2.05;;;;;;;12.15;63.52;100800.00;1705865;84;21010;-41
2021/05/12 07:51:59;;;;;;;3.25;1.80;;;;;;;12.28;62.63;100798.02;1684412;84;20904;-41
2021/05/12 07:54:25;;;;;;;2.80;2.70;;;;;;;12.19;62.17;100799.92;1684332;84;21039;-41
2021/05/12 07:56:51;;;;;;;4.67;2.15;;;;;;;11.97;64.09;100805.91;1684315;84;21474;-41
2021/05/12 07:59:18;;;;;;;2.40;2.20;;;;;;;11.83;64.14;100801.44;1684546;84;20986;-41
2021/05/12 08:01:46;;;;;;;3.27;2.47;;;;;;;11.68;64.85;100801.27;1684637;84;20954;-41
2021/05/12 08:04:12;;;;;;;1.70;1.60;;;;;;;11.55;66.80;100809.70;1684205;84;20990;-41
2021/05/12 08:06:38;;;;;;;1.47;1.37;;;;;;;11.59;65.02;100797.09;1691940;83;22703;-40
2021/05/12 08:09:07;;;;;;;4.47;2.42;;;;;;;11.71;65.04;100804.64;1698420;83;21132;-40
2021/05/12 08:11:33;;;;;;;1.72;1.62;;;;;;;11.90;65.67;100803.89;1699817;83;20953;-40
2021/05/12 08:13:59;;;;;;;1.90;1.80;;;;;;;12.15;63.01;100790.92;1726875;83;20994;-40
2021/05/12 08:16:26;;;;;;;3.70;1.85;;;;;;;12.20;63.08;100785.19;1698659;83;21463;-40
2021/05/12 08:18:52;;;;;;;1.75;1.65;;;;;;;12.02;63.41;100789.87;1698765;83;22467;-41
2021/05/12 08:21:19;;;;;;;1.75;1.65;;;;;;;11.76;63.93;100792.48;1698512;83;20999;-41
2021/05/12 08:23:45;;;;;;;2.00;1.90;;;;;;;11.64;65.08;100800.03;1698540;83;20917;-41
2021/05/12 08:26:12;;;;;;;1.50;1.40;;;;;;;11.70;64.65;100800.34;1698690;83;21017;-41
2021/05/12 08:28:40;;;;;;;2.05;1.95;;;;;;;11.94;65.38;100782.63;1698695;83;20939;-41
2021/05/12 08:31:06;;;;;;;4.60;1.62;;;;;;;12.07;65.29;100791.93;1698635;83;20922;-42
2021/05/12 08:33:33;;;;;;;1.95;1.80;;;;;;;12.20;65.74;100790.38;1726817;83;20933;-41
2021/05/12 08:35:59;;;;;;;2.52;2.42;;;;;;;12.23;64.91;100788.17;1675270;83;20938;-40
2021/05/12 08:38:26;;;;;;;2.55;2.10;;;;;;;12.19;64.14;100784.77;1698499;83;21612;-40
2021/05/12 08:40:56;;;;;;;3.05;2.15;;;;;;;12.03;64.42;100781.62;1699836;83;21502;-40
2021/05/12 08:43:21;;;;;;;4.25;2.55;;;;;;;11.92;64.79;100785.69;1699704;83;21706;-41
2021/05/12 08:45:48;;;;;;;1.90;1.80;;;;;;;11.83;64.32;100785.41;1698565;83;21017;-41
2021/05/12 08:48:15;;;;;;;1.67;1.57;;;;;;;11.77;63.93;100786.83;1698592;83;20950;-41
2021/05/12 08:50:42;;;;;;;1.80;1.70;;;;;;;11.69;64.33;100783.08;1698461;83;21645;-42
2021/05/12 08:53:09;;;;;;;2.00;1.90;;;;;;;11.67;64.75;100778.36;1698460;83;20988;-41
2021/05/12 08:55:35;;;;;;;2.62;2.40;;;;;;;11.82;64.89;100777.68;1698600;83;22614;-41
2021/05/12 08:58:02;;;;;;;3.83;3.52;;;;;;;11.98;64.60;100771.76;1698349;83;21016;-41
2021/05/12 09:00:30;;;;;;;3.27;2.17;;;;;;;12.15;63.76;100773.63;1698428;83;21637;-41
2021/05/12 09:03:01;;;;;;;4.40;2.02;;;;;;;12.31;62.80;100766.37;1698567;82;21858;-41
2021/05/12 09:05:28;;;;;;;2.85;2.65;;;;;;;12.56;62.77;100766.28;1698687;83;21368;-41
2021/05/12 09:07:55;;;;;;;2.75;2.30;;;;;;;12.88;62.22;100764.27;1687389;83;22674;-41
2021/05/12 09:10:22;;;;;;;2.87;2.22;;;;;;;13.16;61.40;100758.87;1685814;83;21045;-41
2021/05/12 09:12:53;;;;;;;3.83;2.25;;;;;;;13.39;59.42;100754.39;1715683;83;21436;-40
2021/05/12 09:15:21;;;;;;;1.92;1.82;;;;;;;13.45;56.81;100749.52;1687234;83;21133;-40
2021/05/12 09:17:51;;;;;;;3.80;2.50;;;;;;;13.32;57.47;100748.95;1687370;83;20919;-40
2021/05/12 09:23:17;;;;;;;4.00;2.35;;;;;;;13.03;59.86;100750.52;1815388;79;22439;-41
2021/05/12 09:25:53;;;;;;;10.70;3.40;;;;;;;13.13;60.47;100748.09;1783602;80;20918;-40
2021/05/12 09:28:21;;;;;;;5.12;1.95;;;;;;;13.54;58.87;100744.07;1788623;80;21103;-40
2021/05/12 09:31:14;;;;;;;8.60;2.60;;;;;;;13.91;56.51;100739.63;1788512;80;20925;-40
2021/05/12 09:33:44;;;;;;;1.60;1.47;;;;;;;14.23;56.06;100735.23;1757744;80;21654;-41
2021/05/12 09:36:13;;;;;;;2.10;2.00;;;;;;;14.49;54.77;100738.81;1788448;80;20930;-41
2021/05/12 09:38:39;;;;;;;1.92;1.60;;;;;;;14.46;54.70;100733.27;1788162;80;20950;-41
2021/05/12 09:41:13;;;;;;;1.62;1.52;;;;;;;14.10;53.40;100729.53;1757703;80;20906;-41
2021/05/12 09:43:50;;;;;;;1.70;1.60;;;;;;;13.85;54.42;100718.52;1757818;80;21339;-41
2021/05/12 09:46:27;;;;;;;1.72;1.62;;;;;;;13.76;55.55;100719.63;1781905;80;21009;-41
2021/05/12 09:49:06;;;;;;;1.52;1.52;;;;;;;13.67;56.49;100728.16;1757450;80;20926;-41
2021/05/12 09:51:39;;;;;;;1.82;1.70;;;;;;;13.68;56.68;100724.66;1757947;80;20989;-41
2021/05/12 09:54:19;;;;;;;1.85;1.75;;;;;;;13.65;57.53;100713.88;1757182;80;20886;-41
2021/05/12 09:56:51;;;;;;;2.00;1.90;;;;;;;13.64;56.91;100716.07;1757067;80;20959;-41
2021/05/12 09:59:22;;;;;;;1.90;1.80;;;;;;;13.54;57.37;100712.03;1757812;80;20989;-40
2021/05/12 10:01:52;;;;;;;2.85;1.70;;;;;;;13.43;57.13;100726.14;1757794;80;21554;-41
2021/05/12 10:04:30;;;;;;;2.12;1.55;;;;;;;13.27;57.55;100728.72;1756515;80;20970;-40
2021/05/12 10:06:55;;;;;;;2.30;1.70;;;;;;;13.10;58.60;100718.28;1764821;80;22731;-41
2021/05/12 10:09:24;;;;;;;2.87;2.10;;;;;;;13.00;58.71;100712.89;1726914;81;20989;-40
2021/05/12 10:12:12;;;;;;;2.47;1.90;;;;;;;12.99;59.29;100705.98;1757359;81;21493;-40
2021/05/12 10:14:41;;;;;;;2.83;2.62;;;;;;;13.02;57.56;100705.48;1757377;81;20977;-41
2021/05/12 10:17:11;;;;;;;2.00;1.90;;;;;;;13.16;56.61;100698.63;1757275;81;21589;-41
2021/05/12 10:19:37;;;;;;;1.47;1.37;;;;;;;13.40;56.93;100693.70;1727852;81;20973;-40
2021/05/12 10:22:05;;;;;;;1.42;1.40;;;;;;;13.74;55.55;100686.77;1753332;81;20914;-41
2021/05/12 10:24:34;;;;;;;5.87;1.80;;;;;;;13.90;54.67;100683.27;1749851;82;20994;-41
2021/05/12 10:27:15;;;;;;;2.70;1.70;;;;;;;13.95;55.24;100677.48;1722249;82;21049;-41
2021/05/12 10:29:46;;;;;;;1.55;1.55;;;;;;;14.04;55.07;100681.56;1721114;82;20934;-41
2021/05/12 10:32:30;;;;;;;2.33;2.17;;;;;;;13.95;54.46;100680.08;1746609;82;21001;-41
2021/05/12 10:35:14;;;;;;;1.80;1.70;;;;;;;13.92;55.06;100683.64;1746462;82;20943;-39
2021/05/12 10:37:46;;;;;;;1.87;1.77;;;;;;;13.99;54.62;100675.19;1721694;82;20989;-40
2021/05/12 10:40:31;;;;;;;1.87;1.70;;;;;;;14.19;54.35;100659.00;1749319;82;21041;-41
2021/05/12 10:43:32;;;;;;;1.80;1.80;;;;;;;14.29;55.24;100683.01;1721989;82;20914;-40
2021/05/12 10:46:15;;;;;;;5.78;1.50;;;;;;;14.32;55.80;100680.30;1721592;82;20948;-41
2021/05/12 10:48:47;;;;;;;6.40;1.87;;;;;;;14.17;55.96;100676.85;1746437;82;21173;-41
2021/05/12 10:51:31;;;;;;;2.08;1.87;;;;;;;13.85;56.43;100674.28;1749328;82;20950;-41
2021/05/12 10:54:04;;;;;;;2.05;1.95;;;;;;;13.61;57.18;100681.88;1721594;82;21022;-41
2021/05/12 10:56:42;;;;;;;2.35;2.25;;;;;;;13.45;57.23;100671.52;1721799;82;20942;-40
2021/05/12 10:59:11;;;;;;;5.10;2.87;;;;;;;13.21;56.33;100674.67;1721772;82;20950;-41
2021/05/12 11:01:51;;;;;;;4.80;3.22;;;;;;;13.03;57.31;100672.56;1748881;82;21507;-40
2021/05/12 11:04:22;;;;;;;2.55;1.90;;;;;;;12.89;58.06;100682.00;1721930;82;20926;-41
2021/05/12 11:06:55;;;;;;;2.45;1.62;;;;;;;12.69;58.14;100689.82;1721665;82;21006;-41
2021/05/12 11:09:40;;;;;;;1.35;1.30;;;;;;;12.33;59.35;100685.86;1749325;82;20990;-39
2021/05/12 11:12:11;;;;;;;5.50;1.27;;;;;;;11.96;60.66;100687.92;1721706;82;21534;-40
2021/05/12 11:14:39;;;;;;;6.10;1.65;;;;;;;11.71;62.74;100693.59;1721800;82;21097;-40
2021/05/12 11:17:19;;;;;;;2.00;1.72;;;;;;;11.48;65.58;100684.05;1721759;82;20989;-40
2021/05/12 11:19:51;;;;;;;1.92;1.82;;;;;;;11.24;67.74;100685.80;1721575;82;20993;-41
2021/05/12 11:25:25;;;;;;;5.10;3.10;;;;;;;10.76;70.79;100692.64;1724415;82;21591;-42
2021/05/12 11:33:27;;;;;;;4.33;3.60;;;;;;;9.98;77.03;100698.84;1723931;82;21547;-41
2021/05/12 11:36:02;;;;;;;3.35;3.05;;;;;;;10.02;78.58;100695.33;1723845;82;20981;-41
2021/05/12 11:38:27;;;;;;;2.33;2.22;;;;;;;10.27;79.84;100698.90;1751881;82;20962;-40
2021/05/12 11:41:06;;;;;;;5.87;1.90;;;;;;;10.63;81.30;100694.10;1724135;82;21584;-40
2021/05/12 11:43:42;;;;;;;1.10;1.10;;;;;;;10.89;80.73;100695.44;1751737;81;20922;-41
2021/05/12 11:46:21;;;;;;;1.35;1.25;;;;;;;10.88;77.22;100682.07;1751997;81;21531;-41
2021/05/12 11:48:52;;;;;;;1.25;1.25;;;;;;;10.71;76.82;100683.64;1724287;82;20969;-41
2021/05/12 11:51:35;;;;;;;1.70;1.60;;;;;;;10.60;76.61;100677.33;1724352;82;21021;-41
2021/05/12 11:54:07;;;;;;;1.80;1.70;;;;;;;10.52;76.95;100679.18;1721336;82;21022;-41